Asian Moon — C4EQ2 — position and weather

sailwx.info

Track history (hours):
 
Tides and Currents Weather Stations Pressure Air Temp Water Temp Dewpoint Dewpoint Depression Visibility Wind Speed Wind Dir Waves Ship Positions

Asian Moon

Last reported at 2017-Aug-26 11:51 UTC. Time now 2017-Sep-24 00:01 UTC.
Position N 16°11' W 062°50'.
Warning: this ship's position is 28 days out of date.

Length 148 m; draft 8.5 m.

Type: Cargo ship. MMSI: 209570000.

Date/timePositionNaut miles runAvg speedWind from/ knotsBaromVisibWave heightAir tempDewpointWater temp
2017-Aug-26 11:51N 16°11' W 062°50'616.6
2017-Aug-26 11:29N 16°14' W 062°44'816.6
2017-Aug-26 11:00N 16°17' W 062°37'816.5
2017-Aug-26 10:30N 16°21' W 062°29'816.4
2017-Aug-26 10:01N 16°24' W 062°21'816.3
2017-Aug-26 09:30N 16°28' W 062°14'816.1
2017-Aug-26 09:00N 16°31' W 062°06'815.9
2017-Aug-26 08:30N 16°35' W 061°59'815.5
2017-Aug-26 08:00N 16°38' W 061°51'815.7
2017-Aug-26 07:31N 16°41' W 061°44'816.0
2017-Aug-26 07:00N 16°45' W 061°37'815.8
2017-Aug-26 06:30N 16°50' W 061°30'815.7
2017-Aug-26 06:00N 16°54' W 061°23'815.7
2017-Aug-26 05:31N 16°58' W 061°16'815.7
2017-Aug-26 05:00N 17°03' W 061°09'815.7
2017-Aug-26 04:30N 17°07' W 061°03'816.0
2017-Aug-26 04:00N 17°12' W 060°56'  
2017-Aug-20 17:52N 36°15' W 029°23'7115.2
2017-Aug-20 13:10N 36°56' W 028°10'315.0
2017-Aug-20 12:59N 36°57' W 028°08'815.1
2017-Aug-20 12:27N 37°02' W 027°59'715.0
2017-Aug-20 12:00N 37°06' W 027°52'714.6
2017-Aug-20 11:31N 37°10' W 027°45'814.6
2017-Aug-20 10:56N 37°15' W 027°36'1415.2
2017-Aug-20 10:02N 37°23' W 027°22'414.7
2017-Aug-20 09:44N 37°25' W 027°18'314.5
2017-Aug-20 09:30N 37°27' W 027°14'815.0
2017-Aug-20 09:00N 37°32' W 027°07'815.5
2017-Aug-20 08:30N 37°36' W 026°59'714.9
2017-Aug-20 08:00N 37°40' W 026°51'714.5
2017-Aug-20 07:30N 37°44' W 026°43'714.6
2017-Aug-20 07:00N 37°48' W 026°36'815.4
2017-Aug-20 06:30N 37°53' W 026°28'815.4
2017-Aug-20 06:00N 37°57' W 026°20'714.8
2017-Aug-20 05:30N 38°02' W 026°13'815.6
2017-Aug-20 05:01N 38°07' W 026°05'815.2
2017-Aug-20 04:30N 38°12' W 025°58'815.2
2017-Aug-20 04:01N 38°17' W 025°50'815.5
2017-Aug-20 03:31N 38°22' W 025°43'815.7
2017-Aug-20 03:00N 38°27' W 025°35'815.3
2017-Aug-20 02:30N 38°32' W 025°28'815.7
2017-Aug-20 02:00N 38°37' W 025°20'815.8
2017-Aug-20 01:31N 38°43' W 025°13'815.5
2017-Aug-20 01:00N 38°48' W 025°06'815.6
2017-Aug-20 00:30N 38°53' W 024°58'1015.7
2017-Aug-19 23:54N 38°60' W 024°49'715.3
2017-Aug-19 23:26N 39°04' W 024°42'1515.4
2017-Aug-19 22:26N 39°14' W 024°27'815.4
2017-Aug-19 21:56N 39°20' W 024°20'3915.2
2017-Aug-19 19:23N 39°45' W 023°42'614.9
2017-Aug-19 19:00N 39°48' W 023°36'815.3
2017-Aug-19 18:30N 39°53' W 023°28'815.3
2017-Aug-19 18:00N 39°59' W 023°21'  
2017-Aug-17 04:25N 48°55' W 006°08'1015.3
2017-Aug-17 03:45N 48°60' W 005°54'414.9
2017-Aug-17 03:29N 49°02' W 005°49'7712.9
2017-Aug-16 21:29N 49°38' W 004°05'613.1
2017-Aug-16 21:00N 49°41' W 003°56'713.6
2017-Aug-16 20:30N 49°44' W 003°46'714.2
2017-Aug-16 20:00N 49°47' W 003°36'714.8
2017-Aug-16 19:30N 49°50' W 003°26'715.0
2017-Aug-16 19:00N 49°53' W 003°15'815.2
2017-Aug-16 18:30N 49°57' W 003°05'715.0
2017-Aug-16 18:00N 49°59' W 002°54'714.7
2017-Aug-16 17:30N 50°01' W 002°43'714.4
2017-Aug-16 17:00N 50°04' W 002°32'713.8
2017-Aug-16 16:30N 50°05' W 002°22'713.2
2017-Aug-16 16:00N 50°08' W 002°12'612.7
2017-Aug-16 15:30N 50°10' W 002°03'612.3
2017-Aug-16 14:59N 50°11' W 001°53'612.0
2017-Aug-16 14:30N 50°13' W 001°44'612.0
2017-Aug-16 14:00N 50°14' W 001°35'612.0
2017-Aug-16 13:29N 50°16' W 001°26'612.4
2017-Aug-16 12:58N 50°18' W 001°16'813.1
2017-Aug-16 12:22N 50°20' W 001°04'513.9
2017-Aug-16 12:00N 50°21' W 000°57'  
Track history (hours):
 
Tides and Currents Weather Stations Pressure Air Temp Water Temp Dewpoint Dewpoint Depression Visibility Wind Speed Wind Dir Waves Ship Positions

Asian Moon

Last reported at 2017-Aug-26 11:51 UTC. Time now 2017-Sep-24 00:01 UTC.
Position N 16°11' W 062°50'.
Warning: this ship's position is 28 days out of date.

Length 148 m; draft 8.5 m.

Type: Cargo ship. MMSI: 209570000.

Date/timePositionNaut miles runAvg speedWind from/ knotsBaromVisibWave heightAir tempDewpointWater temp
2017-Aug-26 11:51N 16°11' W 062°50'616.6
2017-Aug-26 11:29N 16°14' W 062°44'816.6
2017-Aug-26 11:00N 16°17' W 062°37'816.5
2017-Aug-26 10:30N 16°21' W 062°29'816.4
2017-Aug-26 10:01N 16°24' W 062°21'816.3
2017-Aug-26 09:30N 16°28' W 062°14'816.1
2017-Aug-26 09:00N 16°31' W 062°06'815.9
2017-Aug-26 08:30N 16°35' W 061°59'815.5
2017-Aug-26 08:00N 16°38' W 061°51'815.7
2017-Aug-26 07:31N 16°41' W 061°44'816.0
2017-Aug-26 07:00N 16°45' W 061°37'815.8
2017-Aug-26 06:30N 16°50' W 061°30'815.7
2017-Aug-26 06:00N 16°54' W 061°23'815.7
2017-Aug-26 05:31N 16°58' W 061°16'815.7
2017-Aug-26 05:00N 17°03' W 061°09'815.7
2017-Aug-26 04:30N 17°07' W 061°03'816.0
2017-Aug-26 04:00N 17°12' W 060°56'  
2017-Aug-20 17:52N 36°15' W 029°23'7115.2
2017-Aug-20 13:10N 36°56' W 028°10'315.0
2017-Aug-20 12:59N 36°57' W 028°08'815.1
2017-Aug-20 12:27N 37°02' W 027°59'715.0
2017-Aug-20 12:00N 37°06' W 027°52'714.6
2017-Aug-20 11:31N 37°10' W 027°45'814.6
2017-Aug-20 10:56N 37°15' W 027°36'1415.2
2017-Aug-20 10:02N 37°23' W 027°22'414.7
2017-Aug-20 09:44N 37°25' W 027°18'314.5
2017-Aug-20 09:30N 37°27' W 027°14'815.0
2017-Aug-20 09:00N 37°32' W 027°07'815.5
2017-Aug-20 08:30N 37°36' W 026°59'714.9
2017-Aug-20 08:00N 37°40' W 026°51'714.5
2017-Aug-20 07:30N 37°44' W 026°43'714.6
2017-Aug-20 07:00N 37°48' W 026°36'815.4
2017-Aug-20 06:30N 37°53' W 026°28'815.4
2017-Aug-20 06:00N 37°57' W 026°20'714.8
2017-Aug-20 05:30N 38°02' W 026°13'815.6
2017-Aug-20 05:01N 38°07' W 026°05'815.2
2017-Aug-20 04:30N 38°12' W 025°58'815.2
2017-Aug-20 04:01N 38°17' W 025°50'815.5
2017-Aug-20 03:31N 38°22' W 025°43'815.7
2017-Aug-20 03:00N 38°27' W 025°35'815.3
2017-Aug-20 02:30N 38°32' W 025°28'815.7
2017-Aug-20 02:00N 38°37' W 025°20'815.8
2017-Aug-20 01:31N 38°43' W 025°13'815.5
2017-Aug-20 01:00N 38°48' W 025°06'815.6
2017-Aug-20 00:30N 38°53' W 024°58'1015.7
2017-Aug-19 23:54N 38°60' W 024°49'715.3
2017-Aug-19 23:26N 39°04' W 024°42'1515.4
2017-Aug-19 22:26N 39°14' W 024°27'815.4
2017-Aug-19 21:56N 39°20' W 024°20'3915.2
2017-Aug-19 19:23N 39°45' W 023°42'614.9
2017-Aug-19 19:00N 39°48' W 023°36'815.3
2017-Aug-19 18:30N 39°53' W 023°28'815.3
2017-Aug-19 18:00N 39°59' W 023°21'  
2017-Aug-17 04:25N 48°55' W 006°08'1015.3
2017-Aug-17 03:45N 48°60' W 005°54'414.9
2017-Aug-17 03:29N 49°02' W 005°49'7712.9
2017-Aug-16 21:29N 49°38' W 004°05'613.1
2017-Aug-16 21:00N 49°41' W 003°56'713.6
2017-Aug-16 20:30N 49°44' W 003°46'714.2
2017-Aug-16 20:00N 49°47' W 003°36'714.8
2017-Aug-16 19:30N 49°50' W 003°26'715.0
2017-Aug-16 19:00N 49°53' W 003°15'815.2
2017-Aug-16 18:30N 49°57' W 003°05'715.0
2017-Aug-16 18:00N 49°59' W 002°54'714.7
2017-Aug-16 17:30N 50°01' W 002°43'714.4
2017-Aug-16 17:00N 50°04' W 002°32'713.8
2017-Aug-16 16:30N 50°05' W 002°22'713.2
2017-Aug-16 16:00N 50°08' W 002°12'612.7
2017-Aug-16 15:30N 50°10' W 002°03'612.3
2017-Aug-16 14:59N 50°11' W 001°53'612.0
2017-Aug-16 14:30N 50°13' W 001°44'612.0
2017-Aug-16 14:00N 50°14' W 001°35'612.0
2017-Aug-16 13:29N 50°16' W 001°26'612.4
2017-Aug-16 12:58N 50°18' W 001°16'813.1
2017-Aug-16 12:22N 50°20' W 001°04'513.9
2017-Aug-16 12:00N 50°21' W 000°57'  

Dump ship's entire track history